KBDR/BDR METAR and TAF weather

Enter ICAO airport designator
Station Type Date Time Source
KBDR METAR 2021/04/18 02:52 UTC NOAA

KBDR 180252Z AUTO 33003KT 10SM OVC070 10/01 A2981 RMK AO2 SLP095 T01000011 50007


Station Type Date Time Source
KBDR Decoded METAR 2021/04/18 02:52 UTC NOAA

SIKORSKY MEMORIAL AIRPORT, CT, United States (KBDR) 41-10N 073-08W 7M
Apr 17, 2021 - 10:52 PM EDT / 2021.04.18 0252 UTC
Wind: from the NNW (330 degrees) at 3 MPH (3 KT):0
Visibility: 10 mile(s):0
Sky conditions: overcast
Temperature: 50.0 F (10.0 C)
Dew Point: 34.0 F (1.1 C)
Relative Humidity: 53%
Pressure (altimeter): 29.81 in. Hg (1009 hPa)
Pressure tendency: 0.02 inches (0.7 hPa) higher than three hours ago
ob: KBDR 180252Z AUTO 33003KT 10SM OVC070 10/01 A2981 RMK AO2 SLP095 T01000011 50007
cycle: 3

Station Type Date Time Source
KBDR TAF 2021/04/18 03:36 UTC NOAA

TAF
AMD KBDR 180233Z 1803/1824 VRB04KT P6SM BKN050
FM181300 29009KT P6SM SCT050 BKN100
FM181600 22009KT P6SM BKN050

Example: see airport list